Terminal Aerodrome Forecast
Issued by NWS

Home | Current Version | Previous Version | Graphics & Text | Print | Product List | Glossary Off
Versions: 1 2 3 4 5 6 7 8 9 10 11 12 13 14 15 16 17 18 19

000
FTUS43 KDDC 061136
TAFGCK
TAF
KGCK 061136Z 0612/0712 34010KT P6SM SCT200
     FM062000 05006KT P6SM BKN200
     FM070000 11007KT P6SM OVC150=

USA.gov is the U.S. government's official web portal to all federal, state and local government web resources and services.